createdAt,value
2022-09-13T00:04:55.660Z,24.32
2022-09-13T00:11:41.037Z,24.27
2022-09-13T00:18:29.014Z,24.08
2022-09-13T00:25:14.563Z,23.96
2022-09-13T00:32:00.018Z,23.90
2022-09-13T00:38:49.437Z,23.79
2022-09-13T00:45:35.475Z,23.52
2022-09-13T00:52:24.088Z,23.79
2022-09-13T00:59:17.512Z,23.47
2022-09-13T01:06:09.596Z,23.39
2022-09-13T01:13:02.036Z,23.05
2022-09-13T01:19:50.019Z,22.86
2022-09-13T01:27:05.504Z,23.02
2022-09-13T01:34:15.475Z,23.27
2022-09-13T01:41:12.849Z,23.12
2022-09-13T01:48:03.495Z,22.49
2022-09-13T01:55:02.716Z,23.02
2022-09-13T02:01:55.257Z,22.44
2022-09-13T02:08:45.297Z,22.94
2022-09-13T02:15:39.845Z,22.78
2022-09-13T02:22:32.013Z,22.42
2022-09-13T02:29:23.293Z,22.44
2022-09-13T02:36:15.240Z,22.55
2022-09-13T02:43:07.829Z,22.55
2022-09-13T03:03:43.825Z,22.46
2022-09-13T03:10:35.116Z,22.46
2022-09-13T03:17:43.832Z,22.30
2022-09-13T03:24:43.509Z,22.46
2022-09-13T03:31:37.269Z,22.47
2022-09-13T03:38:30.072Z,22.44
2022-09-13T03:45:23.094Z,22.39
2022-09-13T03:52:09.245Z,22.41
2022-09-13T03:58:54.863Z,22.24
2022-09-13T04:05:43.065Z,22.39
2022-09-13T04:12:31.328Z,22.39
2022-09-13T04:19:17.291Z,22.33
2022-09-13T04:26:09.256Z,22.26
2022-09-13T04:32:57.847Z,22.27
2022-09-13T04:39:43.762Z,22.22
2022-09-13T04:46:32.325Z,22.21
2022-09-13T04:53:18.370Z,22.21
2022-09-13T05:00:03.960Z,22.21
2022-09-13T05:06:52.540Z,22.18
2022-09-13T05:13:38.382Z,22.01
2022-09-13T05:20:23.948Z,22.07
2022-09-13T05:27:12.903Z,22.18
2022-09-13T05:34:01.826Z,22.20
2022-09-13T05:40:47.350Z,22.13
2022-09-13T05:47:36.163Z,22.07
2022-09-13T05:54:21.898Z,22.13
2022-09-13T06:01:07.617Z,21.04
2022-09-13T06:07:55.663Z,22.04
2022-09-13T06:14:41.012Z,22.23
2022-09-13T06:21:29.092Z,22.25
2022-09-13T06:28:17.396Z,22.23
2022-09-13T06:35:02.957Z,22.26
2022-09-13T06:41:48.795Z,22.05
2022-09-13T06:48:41.348Z,21.77
2022-09-13T06:55:26.903Z,21.75
2022-09-13T07:02:14.585Z,22.02
2022-09-13T07:09:05.159Z,21.78
2022-09-13T07:15:50.649Z,22.21
2022-09-13T07:22:36.082Z,22.29
2022-09-13T07:29:25.857Z,22.37
2022-09-13T07:36:12.869Z,22.45
2022-09-13T07:42:58.363Z,22.46
2022-09-13T07:49:46.928Z,22.50
2022-09-13T07:56:34.667Z,22.14
2022-09-13T08:03:20.009Z,22.60
2022-09-13T08:10:09.524Z,22.49
2022-09-13T08:16:58.468Z,22.66
2022-09-13T08:23:44.667Z,22.73
2022-09-13T08:30:33.382Z,22.89
2022-09-13T08:37:18.741Z,22.68
2022-09-13T08:44:11.132Z,22.53
2022-09-13T08:51:08.776Z,22.83
2022-09-13T08:58:00.707Z,22.50
2022-09-13T09:04:53.675Z,23.01
2022-09-13T09:11:51.498Z,23.21
2022-09-13T09:18:43.211Z,23.32
2022-09-13T09:25:29.421Z,23.35
2022-09-13T09:32:39.131Z,23.23
2022-09-13T09:39:26.427Z,23.18
2022-09-13T09:46:15.542Z,23.11
2022-09-13T09:53:11.696Z,22.87
2022-09-13T10:00:15.083Z,23.41
2022-09-13T10:07:29.819Z,23.44
2022-09-13T10:14:38.720Z,23.83
2022-09-13T10:21:29.188Z,23.99
2022-09-13T10:28:20.913Z,24.19
2022-09-13T10:35:19.832Z,24.36
2022-09-13T10:42:09.695Z,24.54
2022-09-13T10:48:56.183Z,24.65
2022-09-13T10:55:44.220Z,24.49
2022-09-13T11:02:49.690Z,24.30
2022-09-13T11:09:41.689Z,24.16
2022-09-13T11:16:44.738Z,24.14
2022-09-13T11:24:13.772Z,24.25
2022-09-13T11:31:21.523Z,24.43
2022-09-13T11:38:34.375Z,24.66
2022-09-13T11:45:26.591Z,24.81
2022-09-13T11:52:23.605Z,24.87
2022-09-13T11:59:24.919Z,24.87
2022-09-13T12:06:18.653Z,24.97
2022-09-13T12:13:07.001Z,25.05
2022-09-13T12:19:58.883Z,25.16
2022-09-13T12:26:52.965Z,25.21
2022-09-13T12:33:43.204Z,25.26
2022-09-13T12:41:07.260Z,25.46
2022-09-13T12:48:14.099Z,25.62
2022-09-13T12:55:47.569Z,25.77
2022-09-13T13:02:40.394Z,25.97
2022-09-13T13:09:34.060Z,26.18
2022-09-13T13:16:29.925Z,26.34
2022-09-13T13:23:24.579Z,26.69
2022-09-13T13:30:44.305Z,26.18
2022-09-13T13:37:40.798Z,26.61
2022-09-13T13:45:09.624Z,26.73
2022-09-13T13:52:41.292Z,26.82
2022-09-13T13:59:30.993Z,26.75
2022-09-13T14:06:24.943Z,26.54
2022-09-13T14:13:44.839Z,26.93
2022-09-13T14:20:30.284Z,26.62
2022-09-13T14:27:25.259Z,27.02
2022-09-13T14:34:25.152Z,27.12
2022-09-13T14:41:19.470Z,27.25
2022-09-13T14:48:13.073Z,27.36
2022-09-13T14:55:04.250Z,27.49
2022-09-13T15:01:49.653Z,27.61
2022-09-13T15:08:50.141Z,27.64
2022-09-13T15:15:40.701Z,27.66
2022-09-13T15:22:28.629Z,27.37
2022-09-13T15:29:22.725Z,27.81
2022-09-13T15:36:32.005Z,27.88
2022-09-13T15:43:17.455Z,27.92
2022-09-13T15:50:05.659Z,27.96
2022-09-13T15:56:52.364Z,27.96
2022-09-13T16:03:38.874Z,27.89
2022-09-13T16:10:27.162Z,27.78
2022-09-13T16:17:17.062Z,27.66
2022-09-13T16:24:02.461Z,27.60
2022-09-13T16:30:50.950Z,27.55
2022-09-13T16:37:36.536Z,27.55
2022-09-13T16:44:21.848Z,27.74
2022-09-13T16:51:13.199Z,27.25
2022-09-13T16:57:58.943Z,27.58
2022-09-13T17:04:49.038Z,27.58
2022-09-13T17:11:42.968Z,27.51
2022-09-13T17:18:32.978Z,27.58
2022-09-13T17:25:20.908Z,27.24
2022-09-13T17:32:11.194Z,27.50
2022-09-13T17:39:01.095Z,27.40
2022-09-13T17:45:46.836Z,27.42
2022-09-13T17:52:39.546Z,27.34
2022-09-13T17:59:25.945Z,27.28
2022-09-13T18:06:14.440Z,26.82
2022-09-13T18:13:02.686Z,27.26
2022-09-13T18:19:50.360Z,27.17
2022-09-13T18:26:38.391Z,27.08
2022-09-13T18:33:31.828Z,26.95
2022-09-13T18:40:20.550Z,26.90
2022-09-13T18:47:08.607Z,26.80
2022-09-13T18:53:57.391Z,26.82
2022-09-13T19:00:43.203Z,26.54
2022-09-13T19:07:28.803Z,26.71
2022-09-13T19:14:17.155Z,26.85
2022-09-13T19:21:07.426Z,26.54
2022-09-13T19:27:52.782Z,26.52
2022-09-13T19:34:40.756Z,26.48
2022-09-13T19:41:29.705Z,26.37
2022-09-13T19:55:23.883Z,26.36
2022-09-13T20:02:10.794Z,26.32
2022-09-13T20:09:00.268Z,26.22
2022-09-13T20:15:49.092Z,26.34
2022-09-13T20:22:34.506Z,26.37
2022-09-13T20:29:20.774Z,26.40
2022-09-13T20:36:13.296Z,26.40
2022-09-13T20:42:59.037Z,26.47
2022-09-13T20:49:44.159Z,26.66
2022-09-13T20:56:34.919Z,26.41
2022-09-13T21:03:20.546Z,26.39
2022-09-13T21:10:06.992Z,26.40
2022-09-13T21:16:56.837Z,26.39
2022-09-13T21:23:42.347Z,26.05
2022-09-13T21:30:27.895Z,26.40
2022-09-13T21:37:16.188Z,26.38
2022-09-13T21:44:01.709Z,26.38
2022-09-13T21:50:47.159Z,26.38
2022-09-13T21:57:35.237Z,26.31
2022-09-13T22:04:24.242Z,26.20
2022-09-13T22:11:12.636Z,26.19
2022-09-13T22:18:00.605Z,26.11
2022-09-13T22:24:46.538Z,26.12
2022-09-13T22:31:34.887Z,26.10
2022-09-13T22:38:22.937Z,26.12
2022-09-13T22:45:10.611Z,26.14
2022-09-13T22:51:56.026Z,26.11
2022-09-13T22:58:44.829Z,26.20
2022-09-13T23:05:30.229Z,26.24
2022-09-13T23:12:16.187Z,26.28
2022-09-13T23:19:04.479Z,26.22
2022-09-13T23:25:49.840Z,26.21
2022-09-13T23:32:35.166Z,26.17
2022-09-13T23:39:23.836Z,26.12
2022-09-13T23:46:09.986Z,26.22
2022-09-13T23:52:55.802Z,26.20
2022-09-13T23:59:43.676Z,26.35
